Time;durP1;ratioP1;P1;durP2;ratioP2;P2;SDS_P1;SDS_P2;PMS_P1;PMS_P2;Temp;Humidity;BMP_temperature;BMP_pressure;BME280_temperature;BME280_humidity;BME280_pressure;Samples;Min_cycle;Max_cycle;Signal;HPM_P1;HPM_P2
2023/01/14 00:00:42;;;;;;;;;;;17.60;49.10;;;;;;10247105;28;838;-72
2023/01/14 00:05:37;;;;;;;;;;;17.60;49.10;;;;;;10247469;28;861;-72
2023/01/14 00:10:33;;;;;;;;;;;17.60;48.90;;;;;;10246647;28;949;-72
2023/01/14 00:15:28;;;;;;;;;;;17.50;48.90;;;;;;10246298;28;1890;-72
2023/01/14 00:20:24;;;;;;;;;;;17.50;49.10;;;;;;10246888;28;933;-72
2023/01/14 00:25:20;;;;;;;;;;;17.60;49.10;;;;;;10246865;28;853;-72
2023/01/14 00:30:15;;;;;;;;;;;17.60;48.80;;;;;;10244722;28;853;-72
2023/01/14 00:35:11;;;;;;;;;;;17.50;48.80;;;;;;10245768;28;1949;-73
2023/01/14 00:40:06;;;;;;;;;;;17.50;48.90;;;;;;10245530;28;867;-72
2023/01/14 00:45:02;;;;;;;;;;;17.50;49.10;;;;;;10245642;28;877;-72
2023/01/14 00:49:57;;;;;;;;;;;17.50;49.10;;;;;;10245831;28;805;-72
2023/01/14 00:54:52;;;;;;;;;;;17.50;49.10;;;;;;10244968;28;1981;-72
2023/01/14 00:59:48;;;;;;;;;;;17.50;49.20;;;;;;10244908;28;869;-72
2023/01/14 01:04:43;;;;;;;;;;;17.50;48.80;;;;;;10244776;28;821;-72
2023/01/14 01:09:38;;;;;;;;;;;17.50;48.90;;;;;;10245347;28;847;-72
2023/01/14 01:14:34;;;;;;;;;;;17.50;49.10;;;;;;10245010;28;1940;-72
2023/01/14 01:19:29;;;;;;;;;;;17.50;49.30;;;;;;10244948;28;859;-72
2023/01/14 01:24:24;;;;;;;;;;;17.50;48.90;;;;;;10244196;28;1179;-72
2023/01/14 01:29:20;;;;;;;;;;;17.40;49.00;;;;;;10243505;28;842;-72
2023/01/14 01:34:15;;;;;;;;;;;17.50;49.00;;;;;;10244690;28;1902;-72
2023/01/14 01:39:10;;;;;;;;;;;17.40;48.80;;;;;;10248589;28;1024;-72
2023/01/14 01:44:10;;;;;;;;;;;17.40;48.70;;;;;;10252789;28;884;-71
2023/01/14 01:49:05;;;;;;;;;;;17.40;49.00;;;;;;10252030;28;1044;-71
2023/01/14 01:54:00;;;;;;;;;;;17.50;48.80;;;;;;10251814;28;1914;-71
2023/01/14 01:58:56;;;;;;;;;;;17.50;48.70;;;;;;10252394;28;854;-72
2023/01/14 02:03:51;;;;;;;;;;;17.40;48.80;;;;;;10251324;28;1426;-72
2023/01/14 02:08:46;;;;;;;;;;;17.40;48.80;;;;;;10250766;28;909;-72
2023/01/14 02:13:42;;;;;;;;;;;17.50;49.00;;;;;;10251060;28;1946;-72
2023/01/14 02:18:37;;;;;;;;;;;17.50;48.90;;;;;;10250889;28;875;-72
2023/01/14 02:23:32;;;;;;;;;;;17.50;48.90;;;;;;10251358;28;932;-72
2023/01/14 02:28:28;;;;;;;;;;;17.50;48.90;;;;;;10251183;28;905;-72
2023/01/14 02:33:23;;;;;;;;;;;17.40;49.10;;;;;;10250643;28;1957;-72
2023/01/14 02:38:18;;;;;;;;;;;17.40;48.80;;;;;;10250260;28;929;-72
2023/01/14 02:48:28;;;;;;;;;;;17.40;48.90;;;;;;10249966;28;675;-72
2023/01/14 02:53:23;;;;;;;;;;;17.40;48.80;;;;;;10249049;28;1973;-72
2023/01/14 02:58:19;;;;;;;;;;;17.40;49.00;;;;;;10250133;28;877;-71
2023/01/14 03:03:14;;;;;;;;;;;17.50;48.80;;;;;;10249279;28;786;-72
2023/01/14 03:08:09;;;;;;;;;;;17.40;48.60;;;;;;10249741;28;826;-72
2023/01/14 03:13:05;;;;;;;;;;;17.40;48.70;;;;;;10249230;28;1893;-72
2023/01/14 03:18:00;;;;;;;;;;;17.40;48.70;;;;;;10250005;28;790;-72
2023/01/14 03:22:55;;;;;;;;;;;17.40;48.80;;;;;;10248609;28;924;-71
2023/01/14 03:27:51;;;;;;;;;;;17.40;48.70;;;;;;10248392;28;884;-72
2023/01/14 03:32:46;;;;;;;;;;;17.40;48.50;;;;;;10247696;28;1894;-72
2023/01/14 03:37:42;;;;;;;;;;;17.40;49.50;;;;;;10248617;28;980;-72
2023/01/14 03:42:37;;;;;;;;;;;17.40;49.00;;;;;;10248418;28;1008;-72
2023/01/14 03:47:32;;;;;;;;;;;17.40;48.80;;;;;;10248237;28;870;-71
2023/01/14 03:52:28;;;;;;;;;;;17.40;48.70;;;;;;10247365;28;1906;-72
2023/01/14 03:57:23;;;;;;;;;;;17.40;48.90;;;;;;10247870;28;838;-72
2023/01/14 04:02:18;;;;;;;;;;;17.40;49.00;;;;;;10246736;28;905;-72
2023/01/14 04:07:14;;;;;;;;;;;17.40;48.90;;;;;;10246877;28;933;-72
2023/01/14 04:12:09;;;;;;;;;;;17.40;48.50;;;;;;10246604;28;1902;-72
2023/01/14 04:17:04;;;;;;;;;;;17.40;48.70;;;;;;10247295;28;869;-72
2023/01/14 04:22:00;;;;;;;;;;;17.40;48.80;;;;;;10246866;28;881;-72
2023/01/14 04:26:55;;;;;;;;;;;17.30;48.60;;;;;;10245476;28;973;-72
2023/01/14 04:31:50;;;;;;;;;;;17.40;48.60;;;;;;10245840;28;1961;-72
2023/01/14 04:36:46;;;;;;;;;;;17.40;48.60;;;;;;10246371;28;1161;-72
2023/01/14 04:47:12;;;;;;;;;;;17.50;48.60;;;;;;10218662;28;1490;-72
2023/01/14 04:52:07;;;;;;;;;;;17.40;48.80;;;;;;10245153;28;1971;-72
2023/01/14 04:57:03;;;;;;;;;;;17.50;48.60;;;;;;10245061;28;979;-72
2023/01/14 05:01:58;;;;;;;;;;;17.50;48.40;;;;;;10244610;28;1045;-72
2023/01/14 05:06:54;;;;;;;;;;;17.50;49.00;;;;;;10245254;28;835;-70
2023/01/14 05:11:50;;;;;;;;;;;17.50;49.10;;;;;;10244320;28;1973;-71
2023/01/14 05:16:45;;;;;;;;;;;17.50;49.10;;;;;;10244420;28;909;-70
2023/01/14 05:21:40;;;;;;;;;;;17.60;49.60;;;;;;10244282;28;767;-72
2023/01/14 05:26:36;;;;;;;;;;;17.60;49.70;;;;;;10243637;28;865;-71
2023/01/14 05:31:31;;;;;;;;;;;17.60;49.70;;;;;;10244054;28;1894;-72
2023/01/14 05:36:27;;;;;;;;;;;17.70;49.60;;;;;;10245020;28;1155;-72
2023/01/14 05:41:23;;;;;;;;;;;17.70;49.70;;;;;;10243248;28;1203;-71
2023/01/14 05:46:18;;;;;;;;;;;17.70;49.70;;;;;;10243253;28;1008;-72
2023/01/14 05:51:14;;;;;;;;;;;17.70;49.70;;;;;;10243659;28;1983;-71
2023/01/14 05:56:09;;;;;;;;;;;17.70;49.60;;;;;;10243711;28;783;-72
2023/01/14 06:06:22;;;;;;;;;;;17.70;49.70;;;;;;10243019;28;597;-71
2023/01/14 06:11:20;;;;;;;;;;;17.70;49.80;;;;;;10243387;28;1898;-72
2023/01/14 06:16:16;;;;;;;;;;;17.70;49.70;;;;;;10243840;28;893;-71
2023/01/14 06:21:11;;;;;;;;;;;17.70;49.80;;;;;;10243778;28;830;-71
2023/01/14 06:26:06;;;;;;;;;;;17.70;49.80;;;;;;10246511;28;814;-70
2023/01/14 06:31:02;;;;;;;;;;;17.70;49.90;;;;;;10249902;28;1082;-72
2023/01/14 06:35:57;;;;;;;;;;;17.70;49.90;;;;;;10247777;28;1919;-72
2023/01/14 06:40:53;;;;;;;;;;;17.70;49.80;;;;;;10249647;28;882;-72
2023/01/14 06:45:48;;;;;;;;;;;17.70;49.80;;;;;;10249284;28;1242;-74
2023/01/14 06:50:43;;;;;;;;;;;17.70;49.50;;;;;;10249903;28;806;-71
2023/01/14 06:55:39;;;;;;;;;;;17.70;49.70;;;;;;10250229;28;1914;-73
2023/01/14 07:00:34;;;;;;;;;;;17.70;50.40;;;;;;10248882;28;893;-72
2023/01/14 07:05:30;;;;;;;;;;;17.70;49.70;;;;;;10249893;28;891;-70
2023/01/14 07:10:25;;;;;;;;;;;17.70;49.70;;;;;;10249169;28;905;-72
2023/01/14 07:15:21;;;;;;;;;;;17.80;49.70;;;;;;10249031;28;1910;-71
2023/01/14 07:20:17;;;;;;;;;;;17.80;49.70;;;;;;10249245;28;956;-71
2023/01/14 07:25:12;;;;;;;;;;;17.80;49.80;;;;;;10248563;28;790;-71
2023/01/14 07:30:07;;;;;;;;;;;17.80;49.80;;;;;;10249114;28;927;-72
2023/01/14 07:35:03;;;;;;;;;;;17.90;50.00;;;;;;10247831;28;1898;-72
2023/01/14 07:39:58;;;;;;;;;;;17.90;50.00;;;;;;10248526;28;794;-70
2023/01/14 07:44:54;;;;;;;;;;;17.90;49.90;;;;;;10247785;28;895;-70
2023/01/14 07:49:49;;;;;;;;;;;17.80;49.90;;;;;;10247793;28;888;-71
2023/01/14 07:54:44;;;;;;;;;;;17.90;50.00;;;;;;10246759;28;1961;-71
2023/01/14 07:59:40;;;;;;;;;;;17.90;49.90;;;;;;10246668;28;814;-71
2023/01/14 08:04:35;;;;;;;;;;;17.80;49.50;;;;;;10247977;28;1117;-71
2023/01/14 08:09:30;;;;;;;;;;;17.80;49.50;;;;;;10247447;28;878;-75
2023/01/14 08:14:26;;;;;;;;;;;17.80;49.50;;;;;;10246554;28;1898;-74
2023/01/14 08:19:21;;;;;;;;;;;17.90;49.80;;;;;;10247273;28;873;-74
2023/01/14 08:24:17;;;;;;;;;;;17.80;50.10;;;;;;10246624;28;770;-74
2023/01/14 08:29:12;;;;;;;;;;;17.70;50.30;;;;;;10246745;28;814;-74
2023/01/14 08:34:07;;;;;;;;;;;17.60;50.40;;;;;;10245897;28;1898;-74
2023/01/14 08:39:06;;;;;;;;;;;17.50;50.30;;;;;;10246096;28;910;-74
2023/01/14 08:44:01;;;;;;;;;;;17.50;50.20;;;;;;10246154;28;867;-74
2023/01/14 08:48:56;;;;;;;;;;;17.50;50.20;;;;;;10245436;28;993;-74
2023/01/14 08:53:52;;;;;;;;;;;17.50;50.20;;;;;;10245736;28;1977;-74
2023/01/14 08:58:47;;;;;;;;;;;17.50;50.10;;;;;;10245114;28;877;-74
2023/01/14 09:03:45;;;;;;;;;;;17.50;50.10;;;;;;10245470;28;781;-74
2023/01/14 09:19:09;;;;;;;;;;;17.50;50.00;;;;;;10244597;28;613;-74
2023/01/14 09:24:04;;;;;;;;;;;17.40;50.00;;;;;;10245569;28;962;-74
2023/01/14 09:28:59;;;;;;;;;;;17.40;50.00;;;;;;10244792;28;865;-74
2023/01/14 09:33:55;;;;;;;;;;;17.40;49.90;;;;;;10243770;28;1902;-74
2023/01/14 09:38:50;;;;;;;;;;;17.40;50.00;;;;;;10243455;28;862;-74
2023/01/14 09:43:45;;;;;;;;;;;17.40;50.00;;;;;;10244000;28;894;-74
2023/01/14 09:48:41;;;;;;;;;;;17.40;49.90;;;;;;10244461;28;785;-73
2023/01/14 09:53:36;;;;;;;;;;;17.30;49.90;;;;;;10243672;28;1961;-73
2023/01/14 09:58:31;;;;;;;;;;;17.30;50.00;;;;;;10244384;28;880;-74
2023/01/14 10:03:27;;;;;;;;;;;17.30;50.10;;;;;;10251179;28;849;-74
2023/01/14 10:08:22;;;;;;;;;;;17.30;50.00;;;;;;10252203;28;913;-74
2023/01/14 10:13:18;;;;;;;;;;;17.30;50.00;;;;;;10251070;28;1906;-73
2023/01/14 10:18:13;;;;;;;;;;;17.40;50.00;;;;;;10251173;28;783;-72
2023/01/14 10:23:08;;;;;;;;;;;17.30;49.90;;;;;;10251186;28;862;-73
2023/01/14 10:28:04;;;;;;;;;;;17.30;49.80;;;;;;10250861;28;867;-77
2023/01/14 10:32:59;;;;;;;;;;;17.40;49.70;;;;;;10250464;28;1898;-78
2023/01/14 10:37:54;;;;;;;;;;;17.40;49.30;;;;;;10251055;28;817;-77
2023/01/14 10:42:50;;;;;;;;;;;17.30;49.20;;;;;;10250210;28;725;-78
2023/01/14 10:47:45;;;;;;;;;;;17.30;49.20;;;;;;10250092;28;799;-71
2023/01/14 10:52:43;;;;;;;;;;;17.50;49.70;;;;;;10250389;28;1902;-74
2023/01/14 10:57:38;;;;;;;;;;;17.50;49.90;;;;;;10250229;28;853;-74
2023/01/14 11:02:34;;;;;;;;;;;17.40;50.00;;;;;;10250363;28;882;-74
2023/01/14 11:07:29;;;;;;;;;;;17.30;50.10;;;;;;10249314;28;979;-74
2023/01/14 11:12:25;;;;;;;;;;;17.40;50.00;;;;;;10249030;28;1910;-74
2023/01/14 11:17:20;;;;;;;;;;;17.30;50.00;;;;;;10249471;28;886;-75
2023/01/14 11:22:15;;;;;;;;;;;17.30;50.10;;;;;;10249361;28;991;-75
2023/01/14 11:27:11;;;;;;;;;;;17.30;50.00;;;;;;10248559;28;777;-73
2023/01/14 11:32:07;;;;;;;;;;;17.30;50.70;;;;;;10248366;28;1906;-74
2023/01/14 11:37:02;;;;;;;;;;;17.20;50.10;;;;;;10248018;28;1287;-74
2023/01/14 11:41:57;;;;;;;;;;;17.20;50.30;;;;;;10247974;28;972;-74
2023/01/14 11:46:56;;;;;;;;;;;17.20;50.10;;;;;;10247746;28;958;-74
2023/01/14 11:51:51;;;;;;;;;;;17.20;50.20;;;;;;10248136;28;1914;-74
2023/01/14 11:56:46;;;;;;;;;;;17.20;50.20;;;;;;10247437;28;898;-74
2023/01/14 12:01:42;;;;;;;;;;;17.20;50.20;;;;;;10247875;28;814;-74
2023/01/14 12:06:37;;;;;;;;;;;17.20;50.20;;;;;;10247032;28;1135;-73
2023/01/14 12:11:32;;;;;;;;;;;17.20;50.10;;;;;;10246793;28;1902;-74
2023/01/14 12:21:42;;;;;;;;;;;17.20;50.10;;;;;;10245269;28;711;-74
2023/01/14 12:26:38;;;;;;;;;;;17.20;50.00;;;;;;10246138;28;965;-74
2023/01/14 12:31:35;;;;;;;;;;;17.20;50.10;;;;;;10245823;28;1969;-74
2023/01/14 12:36:30;;;;;;;;;;;17.30;50.20;;;;;;10245143;28;1376;-74
2023/01/14 12:46:53;;;;;;;;;;;17.30;50.50;;;;;;10222497;28;1295;-75
2023/01/14 12:51:49;;;;;;;;;;;17.30;50.40;;;;;;10245041;28;1906;-75
2023/01/14 12:56:44;;;;;;;;;;;17.30;50.40;;;;;;10244609;28;962;-76
2023/01/14 13:01:39;;;;;;;;;;;17.30;50.40;;;;;;10244791;28;770;-75
2023/01/14 13:06:35;;;;;;;;;;;17.30;50.30;;;;;;10244755;28;853;-75
2023/01/14 13:11:30;;;;;;;;;;;17.30;50.30;;;;;;10244402;28;1963;-75
2023/01/14 13:16:25;;;;;;;;;;;17.30;50.20;;;;;;10243715;28;857;-75
2023/01/14 13:21:21;;;;;;;;;;;17.30;50.20;;;;;;10244136;28;829;-75
2023/01/14 13:26:16;;;;;;;;;;;17.20;50.30;;;;;;10243323;28;942;-75
2023/01/14 13:31:12;;;;;;;;;;;17.20;50.20;;;;;;10243901;28;798;-75
2023/01/14 13:36:10;;;;;;;;;;;17.20;50.30;;;;;;10243386;28;1965;-75
2023/01/14 13:41:08;;;;;;;;;;;17.20;50.30;;;;;;10243692;28;991;-76
2023/01/14 13:46:04;;;;;;;;;;;17.30;50.20;;;;;;10244182;28;846;-75
2023/01/14 13:50:59;;;;;;;;;;;17.20;50.10;;;;;;10244092;28;794;-75
2023/01/14 13:55:55;;;;;;;;;;;17.20;50.30;;;;;;10243480;28;1977;-75
2023/01/14 14:00:50;;;;;;;;;;;17.20;50.20;;;;;;10243340;28;802;-75
2023/01/14 14:05:45;;;;;;;;;;;17.20;50.20;;;;;;10244262;28;1154;-75
2023/01/14 14:10:41;;;;;;;;;;;17.20;50.30;;;;;;10243199;28;1042;-75
2023/01/14 14:15:36;;;;;;;;;;;17.20;50.30;;;;;;10243099;28;1958;-75
2023/01/14 14:20:31;;;;;;;;;;;17.20;50.30;;;;;;10243019;28;837;-74
2023/01/14 14:25:27;;;;;;;;;;;17.20;50.30;;;;;;10243645;28;877;-74
2023/01/14 14:30:22;;;;;;;;;;;17.20;50.30;;;;;;10243380;28;802;-74
2023/01/14 14:35:17;;;;;;;;;;;17.30;50.40;;;;;;10242414;28;1902;-74
2023/01/14 14:40:13;;;;;;;;;;;17.20;50.20;;;;;;10243158;28;911;-74
2023/01/14 14:45:08;;;;;;;;;;;17.20;50.30;;;;;;10243518;28;870;-74
2023/01/14 14:50:04;;;;;;;;;;;17.20;50.40;;;;;;10249698;28;948;-74
2023/01/14 14:54:59;;;;;;;;;;;17.20;50.40;;;;;;10249368;28;1914;-74
2023/01/14 14:59:54;;;;;;;;;;;17.20;50.40;;;;;;10249349;28;754;-75
2023/01/14 15:04:50;;;;;;;;;;;17.20;50.50;;;;;;10249060;28;869;-75
2023/01/14 15:09:46;;;;;;;;;;;17.20;51.10;;;;;;10248412;28;861;-75
2023/01/14 15:14:43;;;;;;;;;;;17.20;50.50;;;;;;10248644;28;1906;-75
2023/01/14 15:19:38;;;;;;;;;;;17.20;50.50;;;;;;10248929;28;893;-75
2023/01/14 15:24:33;;;;;;;;;;;17.20;50.50;;;;;;10249005;28;798;-74
2023/01/14 15:29:29;;;;;;;;;;;17.20;50.50;;;;;;10248733;28;894;-75
2023/01/14 15:34:24;;;;;;;;;;;17.20;50.50;;;;;;10248540;28;1910;-75
2023/01/14 15:39:20;;;;;;;;;;;17.20;50.50;;;;;;10247796;28;1160;-75
2023/01/14 15:44:15;;;;;;;;;;;17.20;50.50;;;;;;10248196;28;811;-75
2023/01/14 15:49:11;;;;;;;;;;;17.20;50.50;;;;;;10247502;28;801;-75
2023/01/14 15:54:06;;;;;;;;;;;17.20;50.60;;;;;;10247326;28;1915;-76
2023/01/14 15:59:01;;;;;;;;;;;17.20;50.60;;;;;;10247711;28;884;-75
2023/01/14 16:03:57;;;;;;;;;;;17.20;50.60;;;;;;10247473;28;1035;-75
2023/01/14 16:08:53;;;;;;;;;;;17.20;50.60;;;;;;10247345;28;842;-75
2023/01/14 16:13:48;;;;;;;;;;;17.20;50.60;;;;;;10246433;28;1903;-75
2023/01/14 16:18:44;;;;;;;;;;;17.20;50.60;;;;;;10246290;28;875;-74
2023/01/14 16:23:39;;;;;;;;;;;17.20;50.60;;;;;;10246048;28;999;-75
2023/01/14 16:28:34;;;;;;;;;;;17.20;50.70;;;;;;10246490;28;776;-75
2023/01/14 16:33:30;;;;;;;;;;;17.20;50.60;;;;;;10245641;28;1911;-75
2023/01/14 16:38:25;;;;;;;;;;;17.20;50.70;;;;;;10245558;28;877;-75
2023/01/14 16:43:22;;;;;;;;;;;17.20;50.70;;;;;;10245547;28;818;-75
2023/01/14 16:48:17;;;;;;;;;;;17.20;50.70;;;;;;10245424;28;960;-74
2023/01/14 16:53:12;;;;;;;;;;;17.20;50.80;;;;;;10244855;28;2050;-74
2023/01/14 16:58:08;;;;;;;;;;;17.20;50.80;;;;;;10239313;28;1491;-77
2023/01/14 17:03:03;;;;;;;;;;;17.20;50.80;;;;;;10243650;28;1392;-75
2023/01/14 17:07:59;;;;;;;;;;;17.20;50.80;;;;;;10273284;28;1431;-77
2023/01/14 17:12:54;;;;;;;;;;;17.20;50.80;;;;;;10252719;28;1969;-76
2023/01/14 17:17:49;;;;;;;;;;;17.20;50.80;;;;;;10241854;28;1386;-77
2023/01/14 17:22:48;;;;;;;;;;;17.20;50.90;;;;;;10244469;28;1592;-79
2023/01/14 17:27:43;;;;;;;;;;;17.20;51.00;;;;;;10261312;28;1437;-77
2023/01/14 17:32:38;;;;;;;;;;;17.10;51.00;;;;;;10275434;28;1910;-76
2023/01/14 17:37:36;;;;;;;;;;;17.10;51.10;;;;;;10271606;28;1388;-76
2023/01/14 17:42:31;;;;;;;;;;;17.10;51.10;;;;;;10267456;28;1354;-79
2023/01/14 17:47:27;;;;;;;;;;;17.10;51.10;;;;;;10255062;28;1355;-79
2023/01/14 17:52:22;;;;;;;;;;;17.10;51.20;;;;;;10252043;28;1981;-76
2023/01/14 17:57:20;;;;;;;;;;;17.10;51.10;;;;;;10275712;28;1397;-80
2023/01/14 18:02:16;;;;;;;;;;;17.10;51.20;;;;;;10248784;28;1383;-76
2023/01/14 18:07:12;;;;;;;;;;;17.20;51.30;;;;;;10270198;28;1424;-76
2023/01/14 18:12:07;;;;;;;;;;;17.10;51.20;;;;;;10266359;28;1914;-78
2023/01/14 18:17:02;;;;;;;;;;;17.10;51.30;;;;;;10242729;28;1295;-75
2023/01/14 18:21:58;;;;;;;;;;;17.20;51.40;;;;;;10274557;28;1498;-69
2023/01/14 18:26:53;;;;;;;;;;;17.10;51.30;;;;;;10261196;28;1392;-72
2023/01/14 18:31:49;;;;;;;;;;;17.20;51.40;;;;;;10250705;28;1910;-69
2023/01/14 18:36:44;;;;;;;;;;;17.20;51.50;;;;;;10249862;28;1388;-72
2023/01/14 18:41:39;;;;;;;;;;;17.20;51.50;;;;;;10251293;28;912;-77
2023/01/14 18:46:35;;;;;;;;;;;17.20;51.70;;;;;;10250260;28;774;-90
2023/01/14 18:51:30;;;;;;;;;;;17.20;51.70;;;;;;10250626;28;927;-79
2023/01/14 18:56:27;;;;;;;;;;;17.20;51.70;;;;;;10249762;28;1903;-80
2023/01/14 19:01:23;;;;;;;;;;;17.20;51.70;;;;;;10249576;28;902;-79
2023/01/14 19:06:18;;;;;;;;;;;17.20;51.60;;;;;;10249521;28;865;-79
2023/01/14 19:12:01;;;;;;;;;;;17.20;51.60;;;;;;10249326;28;882;-79
2023/01/14 19:16:29;;;;;;;;;;;17.20;51.60;;;;;;10248563;28;1953;-81
2023/01/14 19:21:25;;;;;;;;;;;17.20;51.60;;;;;;10250158;28;787;-78
2023/01/14 19:26:21;;;;;;;;;;;17.20;51.70;;;;;;10248671;28;906;-75
2023/01/14 19:31:16;;;;;;;;;;;17.20;51.70;;;;;;10248698;28;791;-74
2023/01/14 19:36:11;;;;;;;;;;;17.20;51.70;;;;;;10248671;28;1951;-83
2023/01/14 19:41:07;;;;;;;;;;;17.30;51.70;;;;;;10248203;28;840;-83
2023/01/14 19:46:03;;;;;;;;;;;17.20;51.80;;;;;;10247999;28;731;-83
2023/01/14 19:50:58;;;;;;;;;;;17.30;51.70;;;;;;10248559;28;877;-83
2023/01/14 19:55:55;;;;;;;;;;;17.30;51.70;;;;;;10247541;28;1926;-82
2023/01/14 20:00:51;;;;;;;;;;;17.30;51.80;;;;;;10247339;28;973;-82
2023/01/14 20:05:46;;;;;;;;;;;17.30;51.70;;;;;;10247221;28;750;-83
2023/01/14 20:10:41;;;;;;;;;;;17.30;51.70;;;;;;10247563;28;866;-83
2023/01/14 20:15:37;;;;;;;;;;;17.30;51.80;;;;;;10247319;28;1894;-83
2023/01/14 20:20:32;;;;;;;;;;;17.30;51.90;;;;;;10246542;28;1097;-82
2023/01/14 20:25:28;;;;;;;;;;;17.30;51.90;;;;;;10247085;28;849;-83
2023/01/14 20:30:25;;;;;;;;;;;17.30;51.90;;;;;;10246270;28;790;-76
2023/01/14 20:35:20;;;;;;;;;;;17.30;51.90;;;;;;10246264;28;1906;-77
2023/01/14 20:40:15;;;;;;;;;;;17.30;51.80;;;;;;10246592;28;826;-75
2023/01/14 20:45:12;;;;;;;;;;;17.30;51.90;;;;;;10246197;28;991;-77
2023/01/14 20:50:08;;;;;;;;;;;17.40;52.10;;;;;;10245432;28;988;-77
2023/01/14 20:55:03;;;;;;;;;;;17.30;52.10;;;;;;10245962;28;1922;-77
2023/01/14 20:59:59;;;;;;;;;;;17.30;52.10;;;;;;10245167;28;860;-77
2023/01/14 21:04:54;;;;;;;;;;;17.20;52.20;;;;;;10245051;28;762;-75
2023/01/14 21:09:50;;;;;;;;;;;17.20;52.30;;;;;;10245477;28;853;-78
2023/01/14 21:25:13;;;;;;;;;;;17.20;52.30;;;;;;10244244;28;667;-80
2023/01/14 21:30:08;;;;;;;;;;;17.20;52.30;;;;;;10244795;28;859;-81
2023/01/14 21:35:13;;;;;;;;;;;17.20;52.40;;;;;;10243539;28;1906;-81
2023/01/14 21:40:09;;;;;;;;;;;17.20;52.40;;;;;;10244737;28;875;-81
2023/01/14 21:45:04;;;;;;;;;;;17.20;52.30;;;;;;10244052;28;886;-80
2023/01/14 21:50:00;;;;;;;;;;;17.20;52.30;;;;;;10243260;28;786;-81
2023/01/14 21:54:56;;;;;;;;;;;17.20;52.30;;;;;;10245508;28;1910;-81
2023/01/14 21:59:51;;;;;;;;;;;17.20;52.20;;;;;;10252567;28;766;-80
2023/01/14 22:04:47;;;;;;;;;;;17.20;52.20;;;;;;10253566;28;887;-81
2023/01/14 22:09:42;;;;;;;;;;;17.20;52.20;;;;;;10251002;28;869;-80
2023/01/14 22:14:37;;;;;;;;;;;17.20;52.20;;;;;;10250725;28;1879;-78
2023/01/14 22:19:35;;;;;;;;;;;17.20;52.20;;;;;;10251260;28;768;-78
2023/01/14 22:24:30;;;;;;;;;;;17.20;52.30;;;;;;10251087;28;889;-78
2023/01/14 22:29:25;;;;;;;;;;;17.20;52.30;;;;;;10250999;28;1693;-78
2023/01/14 22:34:21;;;;;;;;;;;17.20;52.30;;;;;;10251045;28;1977;-78
2023/01/14 22:39:16;;;;;;;;;;;17.20;52.30;;;;;;10250550;28;907;-78
2023/01/14 22:44:12;;;;;;;;;;;17.20;52.30;;;;;;10250804;28;810;-78
2023/01/14 22:49:07;;;;;;;;;;;17.20;52.20;;;;;;10250032;28;905;-78
2023/01/14 22:54:02;;;;;;;;;;;17.20;52.30;;;;;;10249409;28;1962;-78
2023/01/14 22:58:58;;;;;;;;;;;17.20;52.20;;;;;;10249260;28;838;-77
2023/01/14 23:03:53;;;;;;;;;;;17.20;52.20;;;;;;10250167;28;1018;-77
2023/01/14 23:08:48;;;;;;;;;;;17.20;52.20;;;;;;10248229;28;800;-77
2023/01/14 23:13:44;;;;;;;;;;;17.20;52.20;;;;;;10248638;28;1906;-77
2023/01/14 23:18:39;;;;;;;;;;;17.20;52.10;;;;;;10249708;28;941;-77
2023/01/14 23:23:52;;;;;;;;;;;17.20;52.10;;;;;;10248920;28;909;-78
2023/01/14 23:28:48;;;;;;;;;;;17.10;52.10;;;;;;10248508;28;773;-77
2023/01/14 23:33:48;;;;;;;;;;;17.20;52.10;;;;;;10248446;28;1902;-77
2023/01/14 23:38:43;;;;;;;;;;;17.20;52.00;;;;;;10248317;28;848;-77
2023/01/14 23:43:39;;;;;;;;;;;17.20;52.00;;;;;;10248768;28;794;-73
2023/01/14 23:48:34;;;;;;;;;;;17.10;51.90;;;;;;10248669;28;1040;-75
2023/01/14 23:53:30;;;;;;;;;;;17.20;51.90;;;;;;10246994;28;1914;-75
2023/01/14 23:58:25;;;;;;;;;;;17.20;51.90;;;;;;10248249;28;838;-75
